sensor_id;sensor_type;location;lat;lon;timestamp;temperature;humidity
33594;DHT22;19920;52.242;20.940;2023-12-22T00:00:29;5.40;99.90
33594;DHT22;19920;52.242;20.940;2023-12-22T00:02:55;5.50;99.90
33594;DHT22;19920;52.242;20.940;2023-12-22T00:05:20;5.60;99.90
33594;DHT22;19920;52.242;20.940;2023-12-22T00:07:46;5.70;99.90
33594;DHT22;19920;52.242;20.940;2023-12-22T00:10:11;5.70;99.90
33594;DHT22;19920;52.242;20.940;2023-12-22T00:12:37;5.60;99.90
33594;DHT22;19920;52.242;20.940;2023-12-22T00:15:04;5.60;99.90
33594;DHT22;19920;52.242;20.940;2023-12-22T00:17:30;5.60;99.90
33594;DHT22;19920;52.242;20.940;2023-12-22T00:19:56;5.60;99.90
33594;DHT22;19920;52.242;20.940;2023-12-22T00:22:24;5.50;99.90
33594;DHT22;19920;52.242;20.940;2023-12-22T00:24:51;5.50;99.90
33594;DHT22;19920;52.242;20.940;2023-12-22T00:27:16;5.50;99.90
33594;DHT22;19920;52.242;20.940;2023-12-22T00:29:42;5.40;99.90
33594;DHT22;19920;52.242;20.940;2023-12-22T00:32:07;5.50;99.90
33594;DHT22;19920;52.242;20.940;2023-12-22T00:34:35;5.50;99.90
33594;DHT22;19920;52.242;20.940;2023-12-22T00:37:01;5.50;99.90
33594;DHT22;19920;52.242;20.940;2023-12-22T00:39:26;5.50;99.90
33594;DHT22;19920;52.242;20.940;2023-12-22T00:41:52;5.40;99.90
33594;DHT22;19920;52.242;20.940;2023-12-22T00:44:18;5.40;99.90
33594;DHT22;19920;52.242;20.940;2023-12-22T00:46:43;5.40;99.90
33594;DHT22;19920;52.242;20.940;2023-12-22T00:49:09;5.30;99.90
33594;DHT22;19920;52.242;20.940;2023-12-22T00:51:34;5.30;99.90
33594;DHT22;19920;52.242;20.940;2023-12-22T00:54:00;5.30;99.90
33594;DHT22;19920;52.242;20.940;2023-12-22T00:56:25;5.30;99.90
33594;DHT22;19920;52.242;20.940;2023-12-22T00:58:51;5.20;99.90
33594;DHT22;19920;52.242;20.940;2023-12-22T01:01:17;5.20;99.90
33594;DHT22;19920;52.242;20.940;2023-12-22T01:03:42;5.30;99.90
33594;DHT22;19920;52.242;20.940;2023-12-22T01:06:08;5.20;99.90
33594;DHT22;19920;52.242;20.940;2023-12-22T01:08:33;5.20;99.90
33594;DHT22;19920;52.242;20.940;2023-12-22T01:11:01;5.20;99.90
33594;DHT22;19920;52.242;20.940;2023-12-22T01:13:27;5.10;99.90
33594;DHT22;19920;52.242;20.940;2023-12-22T01:15:52;5.10;99.90
33594;DHT22;19920;52.242;20.940;2023-12-22T01:18:18;5.10;99.90
33594;DHT22;19920;52.242;20.940;2023-12-22T01:20:43;5.10;99.90
33594;DHT22;19920;52.242;20.940;2023-12-22T01:23:09;5.10;99.90
33594;DHT22;19920;52.242;20.940;2023-12-22T01:25:34;5.10;99.90
33594;DHT22;19920;52.242;20.940;2023-12-22T01:28:00;5.10;99.90
33594;DHT22;19920;52.242;20.940;2023-12-22T01:30:25;5.00;99.90
33594;DHT22;19920;52.242;20.940;2023-12-22T01:32:51;5.00;99.90
33594;DHT22;19920;52.242;20.940;2023-12-22T01:35:17;5.00;99.90
33594;DHT22;19920;52.242;20.940;2023-12-22T01:37:42;5.10;99.90
33594;DHT22;19920;52.242;20.940;2023-12-22T01:40:08;5.10;99.90
33594;DHT22;19920;52.242;20.940;2023-12-22T01:42:34;5.10;99.90
33594;DHT22;19920;52.242;20.940;2023-12-22T01:44:59;5.10;99.90
33594;DHT22;19920;52.242;20.940;2023-12-22T01:47:25;5.10;99.90
33594;DHT22;19920;52.242;20.940;2023-12-22T01:49:51;5.10;99.90
33594;DHT22;19920;52.242;20.940;2023-12-22T01:52:17;5.10;99.90
33594;DHT22;19920;52.242;20.940;2023-12-22T01:54:43;5.10;99.90
33594;DHT22;19920;52.242;20.940;2023-12-22T01:57:11;5.10;99.90
33594;DHT22;19920;52.242;20.940;2023-12-22T01:59:39;5.10;99.90
33594;DHT22;19920;52.242;20.940;2023-12-22T02:02:04;5.10;99.90
33594;DHT22;19920;52.242;20.940;2023-12-22T02:04:31;5.20;99.90
33594;DHT22;19920;52.242;20.940;2023-12-22T02:07:01;5.20;99.90
33594;DHT22;19920;52.242;20.940;2023-12-22T02:09:27;5.20;99.90
33594;DHT22;19920;52.242;20.940;2023-12-22T02:11:53;5.30;99.90
33594;DHT22;19920;52.242;20.940;2023-12-22T02:14:18;5.30;99.90
33594;DHT22;19920;52.242;20.940;2023-12-22T02:17:10;5.30;99.90
33594;DHT22;19920;52.242;20.940;2023-12-22T02:22:05;5.40;99.90
33594;DHT22;19920;52.242;20.940;2023-12-22T02:24:31;5.50;99.90
33594;DHT22;19920;52.242;20.940;2023-12-22T02:29:43;5.40;99.90
33594;DHT22;19920;52.242;20.940;2023-12-22T02:32:16;5.50;99.90
33594;DHT22;19920;52.242;20.940;2023-12-22T02:34:46;5.50;99.90
33594;DHT22;19920;52.242;20.940;2023-12-22T02:37:14;5.40;99.90
33594;DHT22;19920;52.242;20.940;2023-12-22T02:39:41;5.30;99.90
33594;DHT22;19920;52.242;20.940;2023-12-22T02:42:09;5.30;99.90
33594;DHT22;19920;52.242;20.940;2023-12-22T02:44:35;5.30;99.90
33594;DHT22;19920;52.242;20.940;2023-12-22T02:47:00;5.30;99.90
33594;DHT22;19920;52.242;20.940;2023-12-22T02:49:26;5.40;99.90
33594;DHT22;19920;52.242;20.940;2023-12-22T02:51:52;5.40;99.90
33594;DHT22;19920;52.242;20.940;2023-12-22T02:54:17;5.40;99.90
33594;DHT22;19920;52.242;20.940;2023-12-22T02:56:46;5.40;99.90
33594;DHT22;19920;52.242;20.940;2023-12-22T02:59:11;5.40;99.90
33594;DHT22;19920;52.242;20.940;2023-12-22T03:01:37;5.40;99.90
33594;DHT22;19920;52.242;20.940;2023-12-22T03:04:02;5.40;99.90
33594;DHT22;19920;52.242;20.940;2023-12-22T03:06:28;5.40;99.90
33594;DHT22;19920;52.242;20.940;2023-12-22T03:08:53;5.40;99.90
33594;DHT22;19920;52.242;20.940;2023-12-22T03:11:19;5.40;99.90
33594;DHT22;19920;52.242;20.940;2023-12-22T03:13:45;5.40;99.90
33594;DHT22;19920;52.242;20.940;2023-12-22T03:16:10;5.30;99.90
33594;DHT22;19920;52.242;20.940;2023-12-22T03:18:38;5.30;99.90
33594;DHT22;19920;52.242;20.940;2023-12-22T03:21:04;5.10;99.90
33594;DHT22;19920;52.242;20.940;2023-12-22T03:23:30;5.00;99.90
33594;DHT22;19920;52.242;20.940;2023-12-22T03:25:56;4.90;99.90
33594;DHT22;19920;52.242;20.940;2023-12-22T03:28:21;4.90;99.90
33594;DHT22;19920;52.242;20.940;2023-12-22T03:30:47;4.80;99.90
33594;DHT22;19920;52.242;20.940;2023-12-22T03:33:12;4.80;99.90
33594;DHT22;19920;52.242;20.940;2023-12-22T03:35:38;4.80;99.90
33594;DHT22;19920;52.242;20.940;2023-12-22T03:38:03;4.80;99.90
33594;DHT22;19920;52.242;20.940;2023-12-22T03:40:29;4.80;99.90
33594;DHT22;19920;52.242;20.940;2023-12-22T03:42:55;4.90;99.90
33594;DHT22;19920;52.242;20.940;2023-12-22T03:45:21;4.90;99.90
33594;DHT22;19920;52.242;20.940;2023-12-22T03:47:47;4.90;99.90
33594;DHT22;19920;52.242;20.940;2023-12-22T03:50:12;4.90;99.90
33594;DHT22;19920;52.242;20.940;2023-12-22T03:52:38;4.90;99.90
33594;DHT22;19920;52.242;20.940;2023-12-22T03:55:04;4.80;99.90
33594;DHT22;19920;52.242;20.940;2023-12-22T03:57:29;4.80;99.90
33594;DHT22;19920;52.242;20.940;2023-12-22T03:59:55;4.80;99.90
33594;DHT22;19920;52.242;20.940;2023-12-22T04:02:20;4.70;99.90
33594;DHT22;19920;52.242;20.940;2023-12-22T04:04:46;4.70;99.90
33594;DHT22;19920;52.242;20.940;2023-12-22T04:07:11;4.70;99.90
33594;DHT22;19920;52.242;20.940;2023-12-22T04:09:37;4.70;99.90
33594;DHT22;19920;52.242;20.940;2023-12-22T04:12:04;4.70;99.90
33594;DHT22;19920;52.242;20.940;2023-12-22T04:14:30;4.80;99.90
33594;DHT22;19920;52.242;20.940;2023-12-22T04:16:55;4.70;99.90
33594;DHT22;19920;52.242;20.940;2023-12-22T04:19:22;4.70;99.90
33594;DHT22;19920;52.242;20.940;2023-12-22T04:21:48;4.60;99.90
33594;DHT22;19920;52.242;20.940;2023-12-22T04:24:13;4.70;99.90
33594;DHT22;19920;52.242;20.940;2023-12-22T04:26:39;4.70;99.90
33594;DHT22;19920;52.242;20.940;2023-12-22T04:29:05;4.70;99.90
33594;DHT22;19920;52.242;20.940;2023-12-22T04:31:30;4.70;99.90
33594;DHT22;19920;52.242;20.940;2023-12-22T04:33:56;4.70;99.90
33594;DHT22;19920;52.242;20.940;2023-12-22T04:36:21;4.70;99.90
33594;DHT22;19920;52.242;20.940;2023-12-22T04:38:47;4.70;99.90
33594;DHT22;19920;52.242;20.940;2023-12-22T04:41:12;4.60;99.90
33594;DHT22;19920;52.242;20.940;2023-12-22T04:43:38;4.60;99.90
33594;DHT22;19920;52.242;20.940;2023-12-22T04:46:04;4.60;99.90
33594;DHT22;19920;52.242;20.940;2023-12-22T04:48:29;4.50;99.90
33594;DHT22;19920;52.242;20.940;2023-12-22T04:50:55;4.50;99.90
33594;DHT22;19920;52.242;20.940;2023-12-22T04:53:20;4.50;99.90
33594;DHT22;19920;52.242;20.940;2023-12-22T04:55:46;4.40;99.90
33594;DHT22;19920;52.242;20.940;2023-12-22T04:58:11;4.30;99.90
33594;DHT22;19920;52.242;20.940;2023-12-22T05:00:37;4.30;99.90
33594;DHT22;19920;52.242;20.940;2023-12-22T05:03:03;4.20;99.90
33594;DHT22;19920;52.242;20.940;2023-12-22T05:05:28;4.20;99.90
33594;DHT22;19920;52.242;20.940;2023-12-22T05:07:54;4.20;99.90
33594;DHT22;19920;52.242;20.940;2023-12-22T05:10:20;4.10;99.90
33594;DHT22;19920;52.242;20.940;2023-12-22T05:12:45;4.20;99.90
33594;DHT22;19920;52.242;20.940;2023-12-22T05:15:11;4.10;99.90
33594;DHT22;19920;52.242;20.940;2023-12-22T05:17:36;4.10;99.90
33594;DHT22;19920;52.242;20.940;2023-12-22T05:20:02;4.10;99.90
33594;DHT22;19920;52.242;20.940;2023-12-22T05:22:28;4.10;99.90
33594;DHT22;19920;52.242;20.940;2023-12-22T05:24:57;4.10;99.90
33594;DHT22;19920;52.242;20.940;2023-12-22T05:27:22;4.10;99.90
33594;DHT22;19920;52.242;20.940;2023-12-22T05:29:48;4.20;99.90
33594;DHT22;19920;52.242;20.940;2023-12-22T05:32:13;4.20;99.90
33594;DHT22;19920;52.242;20.940;2023-12-22T05:34:39;4.20;99.90
33594;DHT22;19920;52.242;20.940;2023-12-22T05:37:05;4.20;99.90
33594;DHT22;19920;52.242;20.940;2023-12-22T05:39:30;4.20;99.90
33594;DHT22;19920;52.242;20.940;2023-12-22T05:41:57;4.20;99.90
33594;DHT22;19920;52.242;20.940;2023-12-22T05:44:23;4.20;99.90
33594;DHT22;19920;52.242;20.940;2023-12-22T05:46:49;4.30;99.90
33594;DHT22;19920;52.242;20.940;2023-12-22T05:49:16;4.30;99.90
33594;DHT22;19920;52.242;20.940;2023-12-22T05:51:41;4.20;99.90
33594;DHT22;19920;52.242;20.940;2023-12-22T05:54:08;4.20;99.90
33594;DHT22;19920;52.242;20.940;2023-12-22T05:56:34;4.10;99.90
33594;DHT22;19920;52.242;20.940;2023-12-22T05:58:59;4.20;99.90
33594;DHT22;19920;52.242;20.940;2023-12-22T06:01:25;4.20;99.90
33594;DHT22;19920;52.242;20.940;2023-12-22T06:03:52;4.30;99.90
33594;DHT22;19920;52.242;20.940;2023-12-22T06:06:18;4.30;99.90
33594;DHT22;19920;52.242;20.940;2023-12-22T06:08:44;4.40;99.90
33594;DHT22;19920;52.242;20.940;2023-12-22T06:11:09;4.30;99.90
33594;DHT22;19920;52.242;20.940;2023-12-22T06:13:35;4.40;99.90
33594;DHT22;19920;52.242;20.940;2023-12-22T06:16:01;4.40;99.90
33594;DHT22;19920;52.242;20.940;2023-12-22T06:18:26;4.40;99.90
33594;DHT22;19920;52.242;20.940;2023-12-22T06:20:52;4.40;99.90
33594;DHT22;19920;52.242;20.940;2023-12-22T06:23:18;4.50;99.90
33594;DHT22;19920;52.242;20.940;2023-12-22T06:25:44;4.50;99.90
33594;DHT22;19920;52.242;20.940;2023-12-22T06:28:11;4.50;99.90
33594;DHT22;19920;52.242;20.940;2023-12-22T06:30:37;4.50;99.90
33594;DHT22;19920;52.242;20.940;2023-12-22T06:33:03;4.50;99.90
33594;DHT22;19920;52.242;20.940;2023-12-22T06:35:29;4.50;99.90
33594;DHT22;19920;52.242;20.940;2023-12-22T06:37:54;4.50;99.90
33594;DHT22;19920;52.242;20.940;2023-12-22T06:40:21;4.60;99.90
33594;DHT22;19920;52.242;20.940;2023-12-22T06:42:47;4.60;99.90
33594;DHT22;19920;52.242;20.940;2023-12-22T06:45:12;4.50;99.90
33594;DHT22;19920;52.242;20.940;2023-12-22T06:47:38;4.60;99.90
33594;DHT22;19920;52.242;20.940;2023-12-22T06:50:04;4.60;99.90
33594;DHT22;19920;52.242;20.940;2023-12-22T06:52:30;4.50;99.90
33594;DHT22;19920;52.242;20.940;2023-12-22T06:54:58;4.60;99.90
33594;DHT22;19920;52.242;20.940;2023-12-22T06:57:24;4.60;99.90
33594;DHT22;19920;52.242;20.940;2023-12-22T06:59:49;4.60;99.90
33594;DHT22;19920;52.242;20.940;2023-12-22T07:02:15;4.60;99.90
33594;DHT22;19920;52.242;20.940;2023-12-22T07:04:40;4.60;99.90
33594;DHT22;19920;52.242;20.940;2023-12-22T07:07:26;4.60;99.90
33594;DHT22;19920;52.242;20.940;2023-12-22T07:09:52;4.60;99.90
33594;DHT22;19920;52.242;20.940;2023-12-22T07:12:17;4.60;99.90
33594;DHT22;19920;52.242;20.940;2023-12-22T07:14:43;4.50;99.90
33594;DHT22;19920;52.242;20.940;2023-12-22T07:17:09;4.50;99.90
33594;DHT22;19920;52.242;20.940;2023-12-22T07:19:34;4.50;99.90
33594;DHT22;19920;52.242;20.940;2023-12-22T07:22:00;4.50;99.90
33594;DHT22;19920;52.242;20.940;2023-12-22T07:24:27;4.50;99.90
33594;DHT22;19920;52.242;20.940;2023-12-22T07:26:53;4.40;99.90
33594;DHT22;19920;52.242;20.940;2023-12-22T07:29:18;4.40;99.90
33594;DHT22;19920;52.242;20.940;2023-12-22T07:31:44;4.40;99.90
33594;DHT22;19920;52.242;20.940;2023-12-22T07:34:09;4.40;99.90
33594;DHT22;19920;52.242;20.940;2023-12-22T07:36:35;4.40;99.90
33594;DHT22;19920;52.242;20.940;2023-12-22T07:39:00;4.40;99.90
33594;DHT22;19920;52.242;20.940;2023-12-22T07:41:26;4.30;99.90
33594;DHT22;19920;52.242;20.940;2023-12-22T07:43:52;4.20;99.90
33594;DHT22;19920;52.242;20.940;2023-12-22T07:46:19;4.20;99.90
33594;DHT22;19920;52.242;20.940;2023-12-22T07:48:44;4.20;99.90
33594;DHT22;19920;52.242;20.940;2023-12-22T07:51:11;4.10;99.90
33594;DHT22;19920;52.242;20.940;2023-12-22T07:53:36;4.00;99.90
33594;DHT22;19920;52.242;20.940;2023-12-22T07:56:02;3.90;99.90
33594;DHT22;19920;52.242;20.940;2023-12-22T07:58:31;4.00;99.90
33594;DHT22;19920;52.242;20.940;2023-12-22T08:00:57;4.00;99.90
33594;DHT22;19920;52.242;20.940;2023-12-22T08:03:23;3.90;99.90
33594;DHT22;19920;52.242;20.940;2023-12-22T08:05:48;3.90;99.90
33594;DHT22;19920;52.242;20.940;2023-12-22T08:08:14;3.90;99.90
33594;DHT22;19920;52.242;20.940;2023-12-22T08:10:42;3.90;99.90
33594;DHT22;19920;52.242;20.940;2023-12-22T08:13:09;3.90;99.90
33594;DHT22;19920;52.242;20.940;2023-12-22T08:15:35;3.90;99.90
33594;DHT22;19920;52.242;20.940;2023-12-22T08:18:01;3.90;99.90
33594;DHT22;19920;52.242;20.940;2023-12-22T08:20:27;3.90;99.90
33594;DHT22;19920;52.242;20.940;2023-12-22T08:22:52;3.90;99.90
33594;DHT22;19920;52.242;20.940;2023-12-22T08:25:18;3.90;99.90
33594;DHT22;19920;52.242;20.940;2023-12-22T08:27:46;3.90;99.90
33594;DHT22;19920;52.242;20.940;2023-12-22T08:30:12;3.90;99.90
33594;DHT22;19920;52.242;20.940;2023-12-22T08:32:38;3.80;99.90
33594;DHT22;19920;52.242;20.940;2023-12-22T08:35:04;3.80;99.90
33594;DHT22;19920;52.242;20.940;2023-12-22T08:37:30;3.80;99.90
33594;DHT22;19920;52.242;20.940;2023-12-22T08:39:56;3.80;99.90
33594;DHT22;19920;52.242;20.940;2023-12-22T08:42:26;3.80;99.90
33594;DHT22;19920;52.242;20.940;2023-12-22T08:44:52;3.80;99.90
33594;DHT22;19920;52.242;20.940;2023-12-22T08:47:17;3.80;99.90
33594;DHT22;19920;52.242;20.940;2023-12-22T08:49:43;3.80;99.90
33594;DHT22;19920;52.242;20.940;2023-12-22T08:52:09;3.90;99.90
33594;DHT22;19920;52.242;20.940;2023-12-22T08:54:34;3.90;99.90
33594;DHT22;19920;52.242;20.940;2023-12-22T08:57:01;4.00;99.90
33594;DHT22;19920;52.242;20.940;2023-12-22T08:59:27;3.90;99.90
33594;DHT22;19920;52.242;20.940;2023-12-22T09:01:52;3.90;99.90
33594;DHT22;19920;52.242;20.940;2023-12-22T09:04:19;4.00;99.90
33594;DHT22;19920;52.242;20.940;2023-12-22T09:06:47;4.00;99.90
33594;DHT22;19920;52.242;20.940;2023-12-22T09:09:13;4.20;99.90
33594;DHT22;19920;52.242;20.940;2023-12-22T09:11:39;4.30;99.90
33594;DHT22;19920;52.242;20.940;2023-12-22T09:14:07;4.40;99.90
33594;DHT22;19920;52.242;20.940;2023-12-22T09:16:36;4.40;99.90
33594;DHT22;19920;52.242;20.940;2023-12-22T09:19:02;4.40;99.90
33594;DHT22;19920;52.242;20.940;2023-12-22T09:21:28;4.40;99.90
33594;DHT22;19920;52.242;20.940;2023-12-22T09:23:54;4.40;99.90
33594;DHT22;19920;52.242;20.940;2023-12-22T09:26:19;4.40;99.90
33594;DHT22;19920;52.242;20.940;2023-12-22T09:28:45;4.40;99.90
33594;DHT22;19920;52.242;20.940;2023-12-22T09:31:11;4.50;99.90
33594;DHT22;19920;52.242;20.940;2023-12-22T09:33:38;4.50;99.90
33594;DHT22;19920;52.242;20.940;2023-12-22T09:36:05;4.60;99.90
33594;DHT22;19920;52.242;20.940;2023-12-22T09:38:31;4.80;99.90
33594;DHT22;19920;52.242;20.940;2023-12-22T09:40:57;5.00;99.90
33594;DHT22;19920;52.242;20.940;2023-12-22T09:43:23;5.10;99.90
33594;DHT22;19920;52.242;20.940;2023-12-22T09:45:49;5.10;99.90
33594;DHT22;19920;52.242;20.940;2023-12-22T09:48:17;5.10;99.90
33594;DHT22;19920;52.242;20.940;2023-12-22T09:50:46;5.10;99.90
33594;DHT22;19920;52.242;20.940;2023-12-22T09:53:13;5.10;99.90
33594;DHT22;19920;52.242;20.940;2023-12-22T09:55:43;5.10;99.90
33594;DHT22;19920;52.242;20.940;2023-12-22T09:58:12;5.00;99.90
33594;DHT22;19920;52.242;20.940;2023-12-22T10:00:39;5.00;99.90
33594;DHT22;19920;52.242;20.940;2023-12-22T10:03:10;5.00;99.90
33594;DHT22;19920;52.242;20.940;2023-12-22T10:05:37;4.90;99.90
33594;DHT22;19920;52.242;20.940;2023-12-22T10:08:03;4.80;99.90
33594;DHT22;19920;52.242;20.940;2023-12-22T10:10:30;4.80;99.90
33594;DHT22;19920;52.242;20.940;2023-12-22T10:12:58;4.30;99.90
33594;DHT22;19920;52.242;20.940;2023-12-22T10:15:24;3.00;99.90
33594;DHT22;19920;52.242;20.940;2023-12-22T10:17:55;2.20;99.90
33594;DHT22;19920;52.242;20.940;2023-12-22T10:20:21;1.80;99.90
33594;DHT22;19920;52.242;20.940;2023-12-22T10:22:47;1.60;99.90
33594;DHT22;19920;52.242;20.940;2023-12-22T10:25:20;1.40;99.90
33594;DHT22;19920;52.242;20.940;2023-12-22T10:27:46;1.20;99.90
33594;DHT22;19920;52.242;20.940;2023-12-22T10:30:13;0.90;99.90
33594;DHT22;19920;52.242;20.940;2023-12-22T10:32:40;0.80;99.90
33594;DHT22;19920;52.242;20.940;2023-12-22T10:35:10;0.70;99.90
33594;DHT22;19920;52.242;20.940;2023-12-22T10:37:35;0.60;99.90
33594;DHT22;19920;52.242;20.940;2023-12-22T10:40:05;0.60;99.90
33594;DHT22;19920;52.242;20.940;2023-12-22T10:42:32;0.60;99.90
33594;DHT22;19920;52.242;20.940;2023-12-22T10:44:58;0.60;99.90
33594;DHT22;19920;52.242;20.940;2023-12-22T10:47:24;0.60;99.90
33594;DHT22;19920;52.242;20.940;2023-12-22T10:49:50;0.70;99.90
33594;DHT22;19920;52.242;20.940;2023-12-22T10:52:17;0.70;99.90
33594;DHT22;19920;52.242;20.940;2023-12-22T10:54:43;0.80;99.90
33594;DHT22;19920;52.242;20.940;2023-12-22T10:57:10;0.90;99.90
33594;DHT22;19920;52.242;20.940;2023-12-22T10:59:40;1.00;99.90
33594;DHT22;19920;52.242;20.940;2023-12-22T11:02:16;1.00;99.90
33594;DHT22;19920;52.242;20.940;2023-12-22T11:04:47;1.20;99.90
33594;DHT22;19920;52.242;20.940;2023-12-22T11:07:19;1.30;99.90
33594;DHT22;19920;52.242;20.940;2023-12-22T11:09:51;1.40;99.90
33594;DHT22;19920;52.242;20.940;2023-12-22T11:12:18;1.60;99.90
33594;DHT22;19920;52.242;20.940;2023-12-22T11:14:46;1.70;99.90
33594;DHT22;19920;52.242;20.940;2023-12-22T11:17:18;1.70;99.90
33594;DHT22;19920;52.242;20.940;2023-12-22T11:19:50;1.80;99.90
33594;DHT22;19920;52.242;20.940;2023-12-22T11:22:17;2.00;99.90
33594;DHT22;19920;52.242;20.940;2023-12-22T11:24:47;2.10;99.90
33594;DHT22;19920;52.242;20.940;2023-12-22T11:27:17;2.20;99.90
33594;DHT22;19920;52.242;20.940;2023-12-22T11:29:50;2.40;99.90
33594;DHT22;19920;52.242;20.940;2023-12-22T11:32:17;2.70;99.90
33594;DHT22;19920;52.242;20.940;2023-12-22T11:34:44;2.80;99.90
33594;DHT22;19920;52.242;20.940;2023-12-22T11:37:11;2.90;99.90
33594;DHT22;19920;52.242;20.940;2023-12-22T11:39:45;3.00;99.90
33594;DHT22;19920;52.242;20.940;2023-12-22T11:42:24;3.00;99.90
33594;DHT22;19920;52.242;20.940;2023-12-22T11:44:52;2.90;99.90
33594;DHT22;19920;52.242;20.940;2023-12-22T11:47:22;2.90;99.90
33594;DHT22;19920;52.242;20.940;2023-12-22T11:49:49;2.80;99.90
33594;DHT22;19920;52.242;20.940;2023-12-22T11:52:18;2.80;99.90
33594;DHT22;19920;52.242;20.940;2023-12-22T11:54:54;2.80;99.90
33594;DHT22;19920;52.242;20.940;2023-12-22T11:59:56;2.80;99.90
33594;DHT22;19920;52.242;20.940;2023-12-22T12:02:22;2.80;99.90
33594;DHT22;19920;52.242;20.940;2023-12-22T12:04:48;2.80;99.90
33594;DHT22;19920;52.242;20.940;2023-12-22T12:10:08;2.90;99.90
33594;DHT22;19920;52.242;20.940;2023-12-22T12:12:34;3.00;99.90
33594;DHT22;19920;52.242;20.940;2023-12-22T12:15:13;2.90;99.90
33594;DHT22;19920;52.242;20.940;2023-12-22T12:17:41;2.90;99.90
33594;DHT22;19920;52.242;20.940;2023-12-22T12:20:08;3.00;99.90
33594;DHT22;19920;52.242;20.940;2023-12-22T12:22:35;3.10;99.90
33594;DHT22;19920;52.242;20.940;2023-12-22T12:25:07;3.10;99.90
33594;DHT22;19920;52.242;20.940;2023-12-22T12:27:34;3.10;99.90
33594;DHT22;19920;52.242;20.940;2023-12-22T12:30:07;3.10;99.90
33594;DHT22;19920;52.242;20.940;2023-12-22T12:32:35;3.20;99.90
33594;DHT22;19920;52.242;20.940;2023-12-22T12:35:01;3.10;99.90
33594;DHT22;19920;52.242;20.940;2023-12-22T12:37:27;3.10;99.90
33594;DHT22;19920;52.242;20.940;2023-12-22T12:39:55;3.10;99.90
33594;DHT22;19920;52.242;20.940;2023-12-22T12:42:23;3.20;99.90
33594;DHT22;19920;52.242;20.940;2023-12-22T12:44:49;3.20;99.90
33594;DHT22;19920;52.242;20.940;2023-12-22T12:47:15;3.10;99.90
33594;DHT22;19920;52.242;20.940;2023-12-22T12:49:41;3.00;99.90
33594;DHT22;19920;52.242;20.940;2023-12-22T12:52:15;3.00;99.90
33594;DHT22;19920;52.242;20.940;2023-12-22T12:54:41;3.00;99.90
33594;DHT22;19920;52.242;20.940;2023-12-22T12:57:06;2.90;99.90
33594;DHT22;19920;52.242;20.940;2023-12-22T12:59:32;2.90;99.90
33594;DHT22;19920;52.242;20.940;2023-12-22T13:01:58;2.80;99.90
33594;DHT22;19920;52.242;20.940;2023-12-22T13:04:36;2.80;99.90
33594;DHT22;19920;52.242;20.940;2023-12-22T13:07:03;2.70;99.90
33594;DHT22;19920;52.242;20.940;2023-12-22T13:09:32;2.70;99.90
33594;DHT22;19920;52.242;20.940;2023-12-22T13:11:59;2.70;99.90
33594;DHT22;19920;52.242;20.940;2023-12-22T13:14:25;2.70;99.90
33594;DHT22;19920;52.242;20.940;2023-12-22T13:16:53;2.70;99.90
33594;DHT22;19920;52.242;20.940;2023-12-22T13:19:25;2.60;99.90
33594;DHT22;19920;52.242;20.940;2023-12-22T13:21:54;2.60;99.90
33594;DHT22;19920;52.242;20.940;2023-12-22T13:24:20;2.50;99.90
33594;DHT22;19920;52.242;20.940;2023-12-22T13:26:46;2.50;99.90
33594;DHT22;19920;52.242;20.940;2023-12-22T13:29:12;2.50;99.90
33594;DHT22;19920;52.242;20.940;2023-12-22T13:31:39;2.50;99.90
33594;DHT22;19920;52.242;20.940;2023-12-22T13:34:09;2.50;99.90
33594;DHT22;19920;52.242;20.940;2023-12-22T13:36:36;2.50;99.90
33594;DHT22;19920;52.242;20.940;2023-12-22T13:39:05;2.50;99.90
33594;DHT22;19920;52.242;20.940;2023-12-22T13:41:33;2.50;99.90
33594;DHT22;19920;52.242;20.940;2023-12-22T13:44:03;2.50;99.90
33594;DHT22;19920;52.242;20.940;2023-12-22T13:46:29;2.50;99.90
33594;DHT22;19920;52.242;20.940;2023-12-22T13:48:54;2.50;99.90
33594;DHT22;19920;52.242;20.940;2023-12-22T13:51:20;2.50;99.90
33594;DHT22;19920;52.242;20.940;2023-12-22T13:53:49;2.60;99.90
33594;DHT22;19920;52.242;20.940;2023-12-22T13:56:16;2.60;99.90
33594;DHT22;19920;52.242;20.940;2023-12-22T13:58:46;2.50;99.90
33594;DHT22;19920;52.242;20.940;2023-12-22T14:01:15;2.40;99.90
33594;DHT22;19920;52.242;20.940;2023-12-22T14:03:43;2.40;99.90
33594;DHT22;19920;52.242;20.940;2023-12-22T14:06:11;2.30;99.90
33594;DHT22;19920;52.242;20.940;2023-12-22T14:08:39;2.30;99.90
33594;DHT22;19920;52.242;20.940;2023-12-22T14:11:05;2.30;99.90
33594;DHT22;19920;52.242;20.940;2023-12-22T14:13:30;2.30;99.90
33594;DHT22;19920;52.242;20.940;2023-12-22T14:15:57;2.30;99.90
33594;DHT22;19920;52.242;20.940;2023-12-22T14:18:23;2.40;99.90
33594;DHT22;19920;52.242;20.940;2023-12-22T14:20:48;2.40;99.90
33594;DHT22;19920;52.242;20.940;2023-12-22T14:23:14;2.30;99.90
33594;DHT22;19920;52.242;20.940;2023-12-22T14:25:44;2.30;99.90
33594;DHT22;19920;52.242;20.940;2023-12-22T14:28:10;2.20;99.90
33594;DHT22;19920;52.242;20.940;2023-12-22T14:30:36;2.10;99.90
33594;DHT22;19920;52.242;20.940;2023-12-22T14:33:01;2.10;99.90
33594;DHT22;19920;52.242;20.940;2023-12-22T14:35:27;2.10;99.90
33594;DHT22;19920;52.242;20.940;2023-12-22T14:37:52;2.10;99.90
33594;DHT22;19920;52.242;20.940;2023-12-22T14:40:18;2.00;99.90
33594;DHT22;19920;52.242;20.940;2023-12-22T14:42:43;2.10;99.90
33594;DHT22;19920;52.242;20.940;2023-12-22T14:45:09;2.10;99.90
33594;DHT22;19920;52.242;20.940;2023-12-22T14:47:35;2.10;99.90
33594;DHT22;19920;52.242;20.940;2023-12-22T14:50:01;2.20;99.90
33594;DHT22;19920;52.242;20.940;2023-12-22T14:52:30;2.20;99.90
33594;DHT22;19920;52.242;20.940;2023-12-22T14:55:00;2.20;99.90
33594;DHT22;19920;52.242;20.940;2023-12-22T14:57:26;2.20;99.90
33594;DHT22;19920;52.242;20.940;2023-12-22T14:59:54;2.20;99.90
33594;DHT22;19920;52.242;20.940;2023-12-22T15:02:19;2.30;99.90
33594;DHT22;19920;52.242;20.940;2023-12-22T15:04:45;2.20;99.90
33594;DHT22;19920;52.242;20.940;2023-12-22T15:07:15;2.20;99.90
33594;DHT22;19920;52.242;20.940;2023-12-22T15:09:41;2.20;99.90
33594;DHT22;19920;52.242;20.940;2023-12-22T15:12:07;2.20;99.90
33594;DHT22;19920;52.242;20.940;2023-12-22T15:14:32;2.10;99.90
33594;DHT22;19920;52.242;20.940;2023-12-22T15:16:58;2.00;99.90
33594;DHT22;19920;52.242;20.940;2023-12-22T15:19:24;2.00;99.90
33594;DHT22;19920;52.242;20.940;2023-12-22T15:21:49;2.00;99.90
33594;DHT22;19920;52.242;20.940;2023-12-22T15:24:15;2.00;99.90
33594;DHT22;19920;52.242;20.940;2023-12-22T15:26:41;2.00;99.90
33594;DHT22;19920;52.242;20.940;2023-12-22T15:29:08;2.10;99.90
33594;DHT22;19920;52.242;20.940;2023-12-22T15:31:34;2.00;99.90
33594;DHT22;19920;52.242;20.940;2023-12-22T15:34:00;2.00;99.90
33594;DHT22;19920;52.242;20.940;2023-12-22T15:36:25;1.90;99.90